Time;durP1;ratioP1;P1;durP2;ratioP2;P2;SDS_P1;SDS_P2;PMS_P1;PMS_P2;Temp;Humidity;BMP_temperature;BMP_pressure;BME280_temperature;BME280_humidity;BME280_pressure;Samples;Min_cycle;Max_cycle;Signal;HPM_P1;HPM_P2
2022/09/09 00:01:31;;;;;;;6.65;4.60;;;;;;;;;;6176210;23;20658;-89
2022/09/09 00:04:37;;;;;;;8.68;4.45;;;;;;;;;;6176155;23;20159;-89
2022/09/09 00:07:45;;;;;;;8.57;5.00;;;;;;;;;;6176352;23;20168;-89
2022/09/09 00:10:54;;;;;;;6.28;4.32;;;;;;;;;;6175741;23;20243;-90
2022/09/09 00:14:02;;;;;;;8.48;4.00;;;;;;;;;;6187669;23;20190;-90
2022/09/09 00:17:10;;;;;;;11.85;4.60;;;;;;;;;;6203542;23;20166;-89
2022/09/09 00:20:18;;;;;;;10.75;4.88;;;;;;;;;;6204972;23;20191;-90
2022/09/09 00:23:25;;;;;;;9.25;4.55;;;;;;;;;;6205275;23;20163;-89
2022/09/09 00:26:37;;;;;;;5.30;2.97;;;;;;;;;;6204840;23;20175;-89
2022/09/09 00:29:45;;;;;;;6.57;2.80;;;;;;;;;;6203911;23;20167;-88
2022/09/09 00:32:51;;;;;;;19.98;3.80;;;;;;;;;;6206078;23;20242;-91
2022/09/09 00:35:58;;;;;;;10.85;3.90;;;;;;;;;;6203848;23;20167;-89
2022/09/09 00:39:04;;;;;;;7.18;3.35;;;;;;;;;;6207337;23;20194;-90
2022/09/09 00:42:15;;;;;;;8.93;3.35;;;;;;;;;;6205606;23;20619;-88
2022/09/09 00:45:34;;;;;;;8.07;3.95;;;;;;;;;;6224303;23;20282;-89
2022/09/09 00:48:45;;;;;;;9.90;4.40;;;;;;;;;;6206919;23;20170;-88
2022/09/09 00:51:56;;;;;;;9.32;4.78;;;;;;;;;;6204450;23;20251;-91
2022/09/09 00:55:06;;;;;;;8.85;4.68;;;;;;;;;;6207032;23;20155;-89
2022/09/09 00:58:12;;;;;;;7.18;3.28;;;;;;;;;;6207308;23;20242;-89
2022/09/09 01:01:18;;;;;;;5.40;3.08;;;;;;;;;;6204283;23;20614;-88
2022/09/09 01:04:30;;;;;;;7.78;3.25;;;;;;;;;;6205118;23;20274;-89
2022/09/09 01:07:36;;;;;;;6.60;3.88;;;;;;;;;;6205423;23;20187;-89
2022/09/09 01:10:46;;;;;;;7.82;3.80;;;;;;;;;;6205005;23;20238;-89
2022/09/09 01:13:55;;;;;;;6.57;4.00;;;;;;;;;;6206372;23;20179;-89
2022/09/09 01:17:03;;;;;;;7.95;3.90;;;;;;;;;;6205687;23;20163;-88
2022/09/09 01:20:16;;;;;;;7.07;4.13;;;;;;;;;;6204359;23;20311;-90
2022/09/09 01:23:40;;;;;;;7.28;5.03;;;;;;;;;;6208092;23;20171;-89
2022/09/09 01:27:00;;;;;;;12.52;5.28;;;;;;;;;;6207913;23;20171;-90
2022/09/09 01:30:06;;;;;;;15.10;5.82;;;;;;;;;;6207825;23;20175;-89
2022/09/09 01:33:14;;;;;;;12.15;5.78;;;;;;;;;;6207421;23;20175;-90
2022/09/09 01:36:26;;;;;;;10.32;5.60;;;;;;;;;;6208228;23;20158;-89
2022/09/09 01:39:31;;;;;;;11.10;4.95;;;;;;;;;;6208277;23;20179;-88
2022/09/09 01:42:49;;;;;;;10.73;5.50;;;;;;;;;;6208041;23;20168;-89
2022/09/09 01:45:55;;;;;;;14.20;6.55;;;;;;;;;;6210285;23;20167;-88
2022/09/09 01:49:02;;;;;;;12.70;6.75;;;;;;;;;;6211076;23;20175;-89
2022/09/09 01:52:08;;;;;;;11.90;6.30;;;;;;;;;;6210250;23;20170;-88
2022/09/09 01:55:17;;;;;;;16.77;6.57;;;;;;;;;;6217082;23;20166;-89
2022/09/09 03:58:53;;;;;;;22.17;12.00;;;;;;;;;;6213882;22;20239;-88
2022/09/09 04:02:00;;;;;;;22.27;11.50;;;;;;;;;;6205074;23;20238;-89
2022/09/09 04:05:06;;;;;;;24.80;13.05;;;;;;;;;;6205770;23;20186;-89
2022/09/09 04:08:12;;;;;;;24.80;12.02;;;;;;;;;;6204429;23;20611;-87
2022/09/09 04:11:17;;;;;;;24.83;12.20;;;;;;;;;;6223104;23;20175;-88
2022/09/09 04:14:28;;;;;;;23.48;12.15;;;;;;;;;;6203196;23;20167;-89
2022/09/09 04:17:33;;;;;;;22.90;12.40;;;;;;;;;;6203697;23;20623;-89
2022/09/09 04:20:38;;;;;;;23.67;13.07;;;;;;;;;;6219677;23;20650;-88
2022/09/09 04:23:43;;;;;;;24.98;12.95;;;;;;;;;;6202067;23;20229;-88
2022/09/09 04:26:49;;;;;;;23.33;12.50;;;;;;;;;;6204879;23;20178;-88
2022/09/09 04:29:57;;;;;;;23.33;12.38;;;;;;;;;;6204962;23;20630;-88
2022/09/09 04:33:03;;;;;;;25.35;12.20;;;;;;;;;;6204809;23;20168;-88
2022/09/09 04:36:09;;;;;;;23.25;12.20;;;;;;;;;;6205534;23;20171;-91
2022/09/09 04:39:14;;;;;;;23.75;11.88;;;;;;;;;;6205694;23;20168;-88
2022/09/09 04:42:19;;;;;;;24.20;12.40;;;;;;;;;;6205499;23;20198;-89
2022/09/09 04:45:27;;;;;;;22.70;12.30;;;;;;;;;;6205287;23;20175;-89
2022/09/09 04:48:33;;;;;;;25.17;12.70;;;;;;;;;;6207999;23;20179;-90
2022/09/09 04:51:39;;;;;;;27.38;12.00;;;;;;;;;;6223809;23;20305;-89
2022/09/09 04:54:45;;;;;;;23.75;12.23;;;;;;;;;;6222038;23;20170;-89
2022/09/09 04:57:50;;;;;;;23.25;12.02;;;;;;;;;;6206894;23;20492;-88
2022/09/09 05:01:03;;;;;;;21.25;11.65;;;;;;;;;;6226151;23;20314;-88
2022/09/09 05:04:08;;;;;;;26.10;12.05;;;;;;;;;;6210911;23;20175;-89
2022/09/09 05:07:14;;;;;;;19.02;10.55;;;;;;;;;;6208213;23;20166;-89
2022/09/09 05:10:20;;;;;;;20.73;11.05;;;;;;;;;;6211131;23;20254;-89
2022/09/09 05:13:26;;;;;;;19.52;11.15;;;;;;;;;;6208652;23;20174;-87
2022/09/09 05:16:34;;;;;;;22.40;11.88;;;;;;;;;;6207865;23;20520;-88
2022/09/09 05:19:39;;;;;;;25.50;12.15;;;;;;;;;;6225045;23;20511;-89
2022/09/09 05:22:44;;;;;;;26.65;11.88;;;;;;;;;;6206053;23;20588;-87
2022/09/09 05:25:57;;;;;;;19.90;11.05;;;;;;;;;;6207783;23;20171;-89
2022/09/09 05:29:02;;;;;;;19.85;9.63;;;;;;;;;;6225489;23;20171;-88
2022/09/09 05:32:10;;;;;;;19.15;9.68;;;;;;;;;;6208689;23;20222;-90
2022/09/09 05:35:18;;;;;;;18.75;9.40;;;;;;;;;;6208426;23;20170;-91
2022/09/09 05:38:25;;;;;;;20.65;9.55;;;;;;;;;;6208980;23;20303;-88
2022/09/09 05:41:31;;;;;;;23.17;12.88;;;;;;;;;;6207459;23;20293;-90
2022/09/09 05:44:42;;;;;;;15.70;8.52;;;;;;;;;;6207321;23;20175;-89
2022/09/09 05:48:08;;;;;;;15.52;8.88;;;;;;;;;;6207842;23;20221;-89
2022/09/09 05:51:16;;;;;;;15.70;8.23;;;;;;;;;;6207006;23;20507;-89
2022/09/09 05:54:21;;;;;;;13.30;7.70;;;;;;;;;;6208673;23;20166;-89
2022/09/09 05:57:29;;;;;;;16.35;8.05;;;;;;;;;;6220393;23;20194;-87
2022/09/09 06:00:37;;;;;;;14.48;7.18;;;;;;;;;;6205654;23;20167;-88
2022/09/09 06:03:43;;;;;;;12.45;7.20;;;;;;;;;;6207562;23;20163;-87
2022/09/09 06:06:50;;;;;;;18.50;8.60;;;;;;;;;;6207862;23;20171;-88
2022/09/09 06:09:58;;;;;;;17.98;9.20;;;;;;;;;;6205976;23;20170;-89
2022/09/09 06:13:04;;;;;;;19.13;8.57;;;;;;;;;;6205226;23;20175;-88
2022/09/09 06:16:11;;;;;;;16.30;8.32;;;;;;;;;;6206230;23;20249;-89
2022/09/09 06:19:17;;;;;;;16.00;7.82;;;;;;;;;;6206151;23;20183;-90
2022/09/09 06:22:24;;;;;;;19.23;7.57;;;;;;;;;;6204680;23;20191;-89
2022/09/09 06:25:30;;;;;;;14.77;7.93;;;;;;;;;;6208778;23;20167;-88
2022/09/09 06:28:35;;;;;;;15.25;7.50;;;;;;;;;;6204992;23;20183;-89
2022/09/09 06:31:41;;;;;;;20.05;8.65;;;;;;;;;;6207206;23;20200;-91
2022/09/09 06:34:54;;;;;;;17.30;8.35;;;;;;;;;;6209073;23;20252;-88
2022/09/09 06:38:01;;;;;;;15.90;8.13;;;;;;;;;;6207959;23;20266;-90
2022/09/09 06:41:06;;;;;;;13.25;7.65;;;;;;;;;;6206212;23;20191;-90
2022/09/09 06:44:12;;;;;;;16.20;7.57;;;;;;;;;;6206012;23;20197;-89
2022/09/09 06:47:19;;;;;;;14.75;7.53;;;;;;;;;;6205949;23;20171;-89
2022/09/09 06:50:25;;;;;;;18.48;7.07;;;;;;;;;;6208363;23;20171;-91
2022/09/09 06:53:36;;;;;;;12.82;7.20;;;;;;;;;;6211266;23;20202;-89
2022/09/09 06:56:42;;;;;;;13.40;6.82;;;;;;;;;;6211426;23;20175;-88
2022/09/09 06:59:53;;;;;;;13.65;6.72;;;;;;;;;;6178377;23;20168;-89
2022/09/09 07:02:59;;;;;;;14.13;6.43;;;;;;;;;;6182234;23;20211;-89
2022/09/09 07:06:06;;;;;;;11.75;6.22;;;;;;;;;;6181818;23;20183;-91
2022/09/09 07:09:14;;;;;;;15.35;6.68;;;;;;;;;;6183578;23;20171;-90
2022/09/09 07:12:24;;;;;;;15.65;6.25;;;;;;;;;;6182278;23;20315;-90
2022/09/09 07:15:36;;;;;;;21.88;7.07;;;;;;;;;;6182658;23;20155;-89
2022/09/09 07:18:41;;;;;;;15.88;6.50;;;;;;;;;;6178651;23;20160;-89
2022/09/09 07:21:50;;;;;;;10.68;6.22;;;;;;;;;;6197490;23;20195;-88
2022/09/09 07:25:02;;;;;;;15.40;6.00;;;;;;;;;;6199613;23;20160;-89
2022/09/09 07:28:08;;;;;;;26.90;13.35;;;;;;;;;;6181998;23;20207;-89
2022/09/09 07:31:16;;;;;;;35.80;15.45;;;;;;;;;;6184543;23;20176;-89
2022/09/09 07:34:21;;;;;;;16.52;7.40;;;;;;;;;;6181678;23;20196;-89
2022/09/09 07:37:27;;;;;;;15.75;6.65;;;;;;;;;;6180662;23;20175;-88
2022/09/09 07:40:36;;;;;;;14.35;7.30;;;;;;;;;;6178583;23;20543;-90
2022/09/09 07:43:42;;;;;;;15.05;7.47;;;;;;;;;;6176161;23;20223;-89
2022/09/09 07:46:58;;;;;;;11.60;6.90;;;;;;;;;;6177860;23;20156;-89
2022/09/09 07:50:09;;;;;;;13.43;7.38;;;;;;;;;;6179740;23;20253;-91
2022/09/09 07:53:14;;;;;;;14.93;7.00;;;;;;;;;;6176458;23;20187;-89
2022/09/09 07:56:23;;;;;;;13.57;6.95;;;;;;;;;;6178428;23;20639;-88
2022/09/09 07:59:30;;;;;;;11.63;6.43;;;;;;;;;;6178042;23;20183;-88
2022/09/09 08:02:36;;;;;;;15.65;7.13;;;;;;;;;;6175123;23;20255;-89
2022/09/09 08:05:42;;;;;;;16.45;7.72;;;;;;;;;;6179010;23;20227;-89
2022/09/09 08:08:51;;;;;;;12.15;6.72;;;;;;;;;;6173957;23;20176;-89
2022/09/09 08:11:59;;;;;;;17.73;7.55;;;;;;;;;;6177848;23;20168;-89
2022/09/09 08:15:05;;;;;;;10.73;6.28;;;;;;;;;;6175852;23;20176;-90
2022/09/09 08:18:12;;;;;;;11.57;7.00;;;;;;;;;;6177356;23;20218;-88
2022/09/09 08:21:18;;;;;;;9.63;5.90;;;;;;;;;;6177870;23;20229;-89
2022/09/09 08:24:23;;;;;;;17.65;6.85;;;;;;;;;;6175725;23;20167;-91
2022/09/09 08:27:32;;;;;;;11.85;6.78;;;;;;;;;;6175759;23;20175;-89
2022/09/09 08:30:37;;;;;;;12.93;6.13;;;;;;;;;;6176756;23;20172;-90
2022/09/09 08:33:43;;;;;;;13.43;6.60;;;;;;;;;;6177368;23;20235;-89
2022/09/09 08:36:49;;;;;;;14.02;6.93;;;;;;;;;;6179746;23;20260;-87
2022/09/09 08:39:56;;;;;;;11.40;6.60;;;;;;;;;;6177292;23;20506;-88
2022/09/09 08:43:17;;;;;;;15.02;7.00;;;;;;;;;;6177884;23;20203;-86
2022/09/09 08:46:27;;;;;;;11.48;6.63;;;;;;;;;;6179241;23;20171;-89
2022/09/09 08:49:40;;;;;;;13.15;6.75;;;;;;;;;;6178702;23;20580;-89
2022/09/09 08:52:51;;;;;;;105.95;47.08;;;;;;;;;;6178164;23;20155;-90
2022/09/09 08:55:59;;;;;;;12.75;7.10;;;;;;;;;;6175723;23;20187;-89
2022/09/09 08:59:30;;;;;;;12.32;5.88;;;;;;;;;;6196101;23;20176;-88
2022/09/09 09:02:41;;;;;;;12.00;5.30;;;;;;;;;;6175862;23;20192;-89
2022/09/09 09:05:49;;;;;;;10.48;5.13;;;;;;;;;;6176543;23;20188;-89
2022/09/09 09:08:58;;;;;;;10.45;5.07;;;;;;;;;;6177460;23;20247;-89
2022/09/09 09:12:04;;;;;;;10.27;6.05;;;;;;;;;;6177724;23;20619;-87
2022/09/09 09:15:18;;;;;;;8.68;5.53;;;;;;;;;;6176273;23;20164;-89
2022/09/09 09:18:25;;;;;;;10.02;5.22;;;;;;;;;;6174412;23;20172;-88
2022/09/09 09:21:36;;;;;;;10.63;5.00;;;;;;;;;;6177021;23;20203;-87
2022/09/09 09:24:43;;;;;;;9.13;5.00;;;;;;;;;;6175555;23;20272;-89
2022/09/09 09:27:54;;;;;;;12.43;6.40;;;;;;;;;;6173672;23;20176;-87
2022/09/09 09:31:03;;;;;;;9.23;4.97;;;;;;;;;;6174921;23;20501;-87
2022/09/09 09:34:11;;;;;;;18.55;7.22;;;;;;;;;;6173199;23;20172;-89
2022/09/09 09:37:24;;;;;;;12.50;5.10;;;;;;;;;;6175866;23;20292;-87
2022/09/09 09:40:30;;;;;;;8.63;5.07;;;;;;;;;;6175930;23;20192;-89
2022/09/09 09:43:36;;;;;;;12.82;5.68;;;;;;;;;;6178911;23;20207;-88
2022/09/09 09:46:45;;;;;;;8.88;5.05;;;;;;;;;;6178214;23;20168;-88
2022/09/09 09:49:58;;;;;;;6.65;4.47;;;;;;;;;;6178422;23;20254;-88
2022/09/09 09:53:05;;;;;;;22.30;14.52;;;;;;;;;;6176927;23;20172;-88
2022/09/09 09:56:16;;;;;;;10.45;5.40;;;;;;;;;;6177181;23;20208;-89
2022/09/09 09:59:25;;;;;;;7.75;4.68;;;;;;;;;;6207671;23;20178;-89
2022/09/09 10:02:38;;;;;;;13.50;5.63;;;;;;;;;;6208784;23;20666;-89
2022/09/09 10:05:48;;;;;;;10.10;4.70;;;;;;;;;;6209748;23;20171;-88
2022/09/09 10:08:55;;;;;;;7.88;4.60;;;;;;;;;;6209210;23;20175;-90
2022/09/09 10:12:06;;;;;;;8.00;4.28;;;;;;;;;;6208514;23;20282;-88
2022/09/09 10:15:17;;;;;;;8.00;4.30;;;;;;;;;;6209673;23;20167;-88
2022/09/09 10:18:28;;;;;;;5.68;3.78;;;;;;;;;;6210085;23;20470;-88
2022/09/09 10:21:42;;;;;;;8.10;3.80;;;;;;;;;;6208580;23;20170;-88
2022/09/09 10:24:56;;;;;;;12.88;3.40;;;;;;;;;;6209966;23;20175;-88
2022/09/09 10:28:19;;;;;;;6.03;3.13;;;;;;;;;;6209498;23;20178;-87
2022/09/09 10:31:26;;;;;;;5.28;2.92;;;;;;;;;;6212021;23;20171;-88
2022/09/09 10:34:41;;;;;;;8.60;3.80;;;;;;;;;;6208404;23;20263;-88
2022/09/09 10:37:54;;;;;;;7.55;3.90;;;;;;;;;;6209703;23;20171;-87
2022/09/09 10:41:12;;;;;;;7.75;3.90;;;;;;;;;;6207578;23;20190;-89
2022/09/09 10:44:31;;;;;;;8.65;3.63;;;;;;;;;;6208057;23;20164;-89
2022/09/09 10:51:30;;;;;;;6.43;3.42;;;;;;;;;;6207974;23;20155;-87
2022/09/09 10:54:44;;;;;;;7.40;3.45;;;;;;;;;;6212162;23;20188;-89
2022/09/09 10:57:52;;;;;;;9.05;3.30;;;;;;;;;;6207450;23;20206;-90
2022/09/09 11:01:02;;;;;;;8.32;4.65;;;;;;;;;;6212018;23;20167;-90
2022/09/09 11:04:08;;;;;;;11.10;4.45;;;;;;;;;;6208560;23;20235;-90
2022/09/09 11:07:16;;;;;;;14.77;3.97;;;;;;;;;;6210575;23;20234;-89
2022/09/09 11:10:26;;;;;;;11.95;4.82;;;;;;;;;;6209593;23;20170;-90
2022/09/09 11:13:34;;;;;;;17.10;4.30;;;;;;;;;;6209449;23;20171;-89
2022/09/09 11:16:43;;;;;;;9.13;4.13;;;;;;;;;;6210059;23;20171;-90
2022/09/09 11:19:49;;;;;;;7.65;4.03;;;;;;;;;;6210665;23;20176;-89
2022/09/09 11:23:00;;;;;;;18.02;5.07;;;;;;;;;;6212825;23;20194;-89
2022/09/09 11:26:07;;;;;;;10.35;4.50;;;;;;;;;;6209755;23;20167;-89
2022/09/09 11:29:26;;;;;;;11.52;4.63;;;;;;;;;;6211521;23;20171;-89
2022/09/09 11:32:42;;;;;;;14.07;5.05;;;;;;;;;;6210765;23;20215;-88
2022/09/09 11:35:52;;;;;;;14.00;5.22;;;;;;;;;;6209939;23;20155;-90
2022/09/09 11:39:01;;;;;;;9.90;4.65;;;;;;;;;;6210548;23;20163;-88
2022/09/09 11:42:19;;;;;;;9.43;5.28;;;;;;;;;;6211451;23;20183;-89
2022/09/09 11:45:28;;;;;;;15.38;5.63;;;;;;;;;;6211529;23;20195;-89
2022/09/09 11:49:07;;;;;;;11.13;5.28;;;;;;;;;;6210820;23;20147;-89
2022/09/09 11:52:14;;;;;;;12.23;4.82;;;;;;;;;;6212441;23;20187;-89
2022/09/09 11:55:26;;;;;;;9.05;4.45;;;;;;;;;;6211321;23;20224;-90
2022/09/09 11:58:36;;;;;;;19.52;4.60;;;;;;;;;;6195863;23;20195;-89
2022/09/09 12:05:12;;;;;;;15.40;5.30;;;;;;;;;;6208142;23;20239;-90
2022/09/09 12:08:19;;;;;;;21.40;9.02;;;;;;;;;;6199371;23;20287;-89
2022/09/09 12:11:28;;;;;;;9.75;5.80;;;;;;;;;;6198011;23;20171;-89
2022/09/09 12:14:39;;;;;;;10.95;5.78;;;;;;;;;;6199850;23;20167;-89
2022/09/09 12:17:45;;;;;;;11.02;4.93;;;;;;;;;;6199132;23;20175;-89
2022/09/09 12:20:56;;;;;;;9.23;5.53;;;;;;;;;;6197503;23;20172;-88
2022/09/09 12:24:05;;;;;;;14.43;5.90;;;;;;;;;;6195154;23;20243;-88
2022/09/09 12:27:16;;;;;;;9.75;4.32;;;;;;;;;;6196223;23;20833;-90
2022/09/09 12:30:26;;;;;;;10.35;3.92;;;;;;;;;;6196069;23;20192;-89
2022/09/09 12:33:36;;;;;;;5.85;3.50;;;;;;;;;;6195893;23;20255;-89
2022/09/09 12:36:41;;;;;;;5.93;3.75;;;;;;;;;;6197666;23;20255;-90
2022/09/09 12:39:51;;;;;;;6.60;3.40;;;;;;;;;;6196133;23;20176;-87
2022/09/09 12:42:56;;;;;;;9.18;3.85;;;;;;;;;;6193913;23;20527;-87
2022/09/09 12:46:06;;;;;;;11.05;4.25;;;;;;;;;;6195953;23;20164;-88
2022/09/09 12:49:26;;;;;;;5.90;3.47;;;;;;;;;;6198054;23;20168;-88
2022/09/09 12:52:34;;;;;;;8.40;3.38;;;;;;;;;;6193599;23;20428;-89
2022/09/09 12:55:40;;;;;;;8.52;3.60;;;;;;;;;;6194709;23;20172;-88
2022/09/09 12:58:47;;;;;;;9.55;3.17;;;;;;;;;;6194741;23;20190;-87
2022/09/09 13:02:00;;;;;;;8.27;3.20;;;;;;;;;;6197072;23;20171;-89
2022/09/09 13:05:16;;;;;;;8.00;4.20;;;;;;;;;;6198120;23;20199;-88
2022/09/09 13:08:21;;;;;;;10.98;3.97;;;;;;;;;;6194202;23;20188;-87
2022/09/09 13:11:30;;;;;;;9.18;4.00;;;;;;;;;;6197044;23;20258;-88
2022/09/09 13:14:38;;;;;;;9.30;3.20;;;;;;;;;;6198760;23;20204;-88
2022/09/09 13:18:02;;;;;;;9.05;3.70;;;;;;;;;;6196979;23;20175;-88
2022/09/09 13:21:13;;;;;;;12.07;4.97;;;;;;;;;;6197589;23;20184;-88
2022/09/09 13:24:29;;;;;;;5.30;2.90;;;;;;;;;;6197531;23;20319;-87
2022/09/09 13:27:38;;;;;;;6.38;2.50;;;;;;;;;;6195807;23;20172;-87
2022/09/09 13:30:44;;;;;;;6.57;2.72;;;;;;;;;;6199046;23;20172;-88
2022/09/09 13:33:52;;;;;;;5.55;2.38;;;;;;;;;;6200125;23;20168;-88
2022/09/09 13:37:02;;;;;;;5.68;2.95;;;;;;;;;;6198165;23;20175;-88
2022/09/09 13:40:08;;;;;;;8.30;3.15;;;;;;;;;;6200144;23;20732;-89
2022/09/09 13:43:16;;;;;;;6.07;3.17;;;;;;;;;;6197204;23;20227;-86
2022/09/09 13:46:28;;;;;;;7.03;2.50;;;;;;;;;;6199034;23;20296;-87
2022/09/09 13:49:34;;;;;;;4.25;1.90;;;;;;;;;;6197304;23;20172;-87
2022/09/09 13:52:40;;;;;;;6.63;2.92;;;;;;;;;;6197767;23;20167;-87
2022/09/09 13:55:46;;;;;;;5.97;2.55;;;;;;;;;;6193906;23;20183;-87
2022/09/09 13:58:52;;;;;;;4.43;2.13;;;;;;;;;;6196257;23;20654;-87
2022/09/09 14:01:57;;;;;;;4.65;1.92;;;;;;;;;;6178877;23;20237;-88
2022/09/09 14:05:03;;;;;;;4.72;1.73;;;;;;;;;;6181028;23;20240;-86
2022/09/09 14:08:09;;;;;;;3.78;1.90;;;;;;;;;;6179185;23;20260;-87
2022/09/09 14:11:14;;;;;;;6.00;1.65;;;;;;;;;;6178379;23;20171;-87
2022/09/09 14:14:20;;;;;;;4.70;2.10;;;;;;;;;;6178015;23;20250;-87
2022/09/09 14:17:27;;;;;;;5.40;1.70;;;;;;;;;;6179254;23;20168;-87
2022/09/09 14:20:33;;;;;;;2.50;1.30;;;;;;;;;;6181453;23;20192;-87
2022/09/09 14:23:39;;;;;;;7.07;1.80;;;;;;;;;;6175259;23;20274;-86
2022/09/09 14:26:44;;;;;;;2.72;1.40;;;;;;;;;;6176683;23;20171;-86
2022/09/09 14:29:49;;;;;;;3.55;1.48;;;;;;;;;;6175047;23;20274;-87
2022/09/09 14:32:55;;;;;;;3.63;1.70;;;;;;;;;;6175729;23;20263;-87
2022/09/09 14:36:06;;;;;;;5.75;1.95;;;;;;;;;;6181708;23;20351;-88
2022/09/09 14:39:11;;;;;;;4.40;2.38;;;;;;;;;;6180982;23;20224;-88
2022/09/09 14:42:16;;;;;;;3.13;1.80;;;;;;;;;;6177056;23;20171;-88
2022/09/09 14:45:23;;;;;;;5.18;1.88;;;;;;;;;;6176136;23;20163;-87
2022/09/09 14:52:42;;;;;;;3.67;2.30;;;;;;;;;;6196523;23;20227;-88
2022/09/09 14:55:48;;;;;;;5.72;2.38;;;;;;;;;;6173899;23;20631;-87
2022/09/09 14:58:55;;;;;;;6.30;2.45;;;;;;;;;;6199188;23;20285;-89
2022/09/09 15:02:03;;;;;;;7.00;3.20;;;;;;;;;;6207426;23;20210;-87
2022/09/09 15:05:10;;;;;;;5.63;2.55;;;;;;;;;;6211027;23;20650;-90
2022/09/09 15:08:17;;;;;;;5.32;3.05;;;;;;;;;;6208309;23;20168;-88
2022/09/09 15:11:24;;;;;;;5.13;2.58;;;;;;;;;;6206157;23;20179;-91
2022/09/09 15:14:30;;;;;;;3.97;2.70;;;;;;;;;;6207539;23;20158;-90
2022/09/09 15:17:36;;;;;;;2.75;2.10;;;;;;;;;;6210105;23;20166;-89
2022/09/09 15:20:41;;;;;;;4.25;2.28;;;;;;;;;;6207713;23;20171;-90
2022/09/09 15:23:48;;;;;;;6.43;3.08;;;;;;;;;;6210387;23;20191;-89
2022/09/09 15:26:55;;;;;;;4.45;2.40;;;;;;;;;;6207703;23;20525;-89
2022/09/09 15:30:00;;;;;;;6.40;3.72;;;;;;;;;;6207629;23;20251;-89
2022/09/09 15:33:09;;;;;;;5.43;2.35;;;;;;;;;;6206343;23;20631;-90
2022/09/09 15:36:15;;;;;;;6.03;2.47;;;;;;;;;;6208569;23;20167;-90
2022/09/09 15:39:21;;;;;;;6.70;2.60;;;;;;;;;;6210677;23;20230;-89
2022/09/09 15:42:27;;;;;;;4.72;2.97;;;;;;;;;;6205724;23;20166;-89
2022/09/09 15:45:32;;;;;;;4.60;2.55;;;;;;;;;;6208752;23;20191;-90
2022/09/09 15:48:39;;;;;;;6.32;3.03;;;;;;;;;;6209427;23;20223;-90
2022/09/09 15:51:45;;;;;;;8.20;3.25;;;;;;;;;;6209309;23;20211;-91
2022/09/09 15:54:54;;;;;;;5.15;3.03;;;;;;;;;;6212454;23;20183;-90
2022/09/09 15:58:00;;;;;;;6.63;3.17;;;;;;;;;;6207249;23;20270;-89
2022/09/09 16:01:07;;;;;;;7.57;4.18;;;;;;;;;;6210813;23;20179;-90
2022/09/09 16:04:12;;;;;;;5.80;4.07;;;;;;;;;;6211161;23;20194;-88
2022/09/09 16:07:17;;;;;;;8.82;3.05;;;;;;;;;;6209156;23;20187;-91
2022/09/09 16:10:24;;;;;;;6.38;3.88;;;;;;;;;;6208060;23;20171;-90
2022/09/09 16:13:29;;;;;;;8.18;4.35;;;;;;;;;;6207498;23;20602;-89
2022/09/09 16:16:34;;;;;;;7.70;4.15;;;;;;;;;;6205441;23;20171;-89
2022/09/09 16:19:54;;;;;;;8.57;4.65;;;;;;;;;;6209232;23;20167;-89
2022/09/09 16:23:01;;;;;;;8.00;4.10;;;;;;;;;;6208139;23;20167;-89
2022/09/09 16:26:08;;;;;;;7.63;3.67;;;;;;;;;;6207646;23;20286;-91
2022/09/09 16:29:14;;;;;;;10.15;4.00;;;;;;;;;;6207323;23;20291;-90
2022/09/09 16:32:20;;;;;;;7.57;4.13;;;;;;;;;;6207335;23;20179;-91
2022/09/09 16:35:26;;;;;;;7.80;4.13;;;;;;;;;;6209060;23;20225;-89
2022/09/09 16:38:30;;;;;;;6.78;3.42;;;;;;;;;;6208435;23;20210;-89
2022/09/09 16:41:37;;;;;;;10.38;3.67;;;;;;;;;;6207094;23;20262;-91
2022/09/09 16:44:43;;;;;;;5.63;3.30;;;;;;;;;;6207409;23;20206;-90
2022/09/09 16:47:48;;;;;;;7.60;3.55;;;;;;;;;;6205614;23;20171;-89
2022/09/09 16:50:53;;;;;;;6.35;3.40;;;;;;;;;;6206571;23;20167;-90
2022/09/09 16:54:00;;;;;;;6.97;3.55;;;;;;;;;;6209215;23;20167;-88
2022/09/09 16:57:07;;;;;;;6.65;3.28;;;;;;;;;;6210892;23;20170;-93
2022/09/09 17:00:12;;;;;;;11.95;3.47;;;;;;;;;;6209462;23;20283;-90
2022/09/09 17:03:17;;;;;;;10.10;3.25;;;;;;;;;;6209870;23;20385;-90
2022/09/09 17:06:25;;;;;;;9.43;3.10;;;;;;;;;;6209519;23;20163;-93
2022/09/09 17:09:31;;;;;;;7.43;3.88;;;;;;;;;;6212582;23;20287;-87
2022/09/09 17:12:38;;;;;;;6.63;3.28;;;;;;;;;;6230665;23;20278;-89
2022/09/09 17:15:46;;;;;;;7.30;3.92;;;;;;;;;;6211413;23;20237;-90
2022/09/09 17:18:52;;;;;;;18.25;8.48;;;;;;;;;;6206774;23;20178;-88
2022/09/09 17:21:58;;;;;;;19.77;11.75;;;;;;;;;;6208820;23;20198;-90
2022/09/09 17:25:03;;;;;;;12.75;7.05;;;;;;;;;;6209493;23;20203;-90
2022/09/09 17:28:09;;;;;;;9.43;5.55;;;;;;;;;;6210061;23;20171;-90
2022/09/09 17:31:16;;;;;;;6.32;5.38;;;;;;;;;;6226876;23;20187;-88
2022/09/09 17:34:21;;;;;;;9.20;7.70;;;;;;;;;;6208550;23;20167;-90
2022/09/09 17:37:25;;;;;;;13.35;8.25;;;;;;;;;;6209931;23;20191;-89
2022/09/09 17:40:31;;;;;;;16.20;9.40;;;;;;;;;;6211476;23;20175;-89
2022/09/09 17:43:37;;;;;;;9.07;4.30;;;;;;;;;;6207881;23;20502;-89
2022/09/09 17:47:20;;;;;;;10.07;4.40;;;;;;;;;;6209428;23;20166;-90
2022/09/09 17:50:25;;;;;;;10.10;4.63;;;;;;;;;;6210144;23;20218;-91
2022/09/09 17:53:30;;;;;;;10.68;5.57;;;;;;;;;;6206910;23;20175;-90
2022/09/09 17:56:36;;;;;;;8.32;5.93;;;;;;;;;;6208930;23;20500;-92
2022/09/09 17:59:45;;;;;;;9.80;4.72;;;;;;;;;;6179534;23;20175;-89
2022/09/09 18:02:50;;;;;;;15.40;10.00;;;;;;;;;;6180640;23;20168;-89
2022/09/09 18:06:00;;;;;;;16.02;5.50;;;;;;;;;;6182372;23;20236;-88
2022/09/09 18:09:07;;;;;;;12.30;5.68;;;;;;;;;;6181400;23;20171;-89
2022/09/09 18:12:12;;;;;;;8.68;5.22;;;;;;;;;;6179789;23;20167;-88
2022/09/09 18:15:19;;;;;;;17.38;6.05;;;;;;;;;;6185326;23;20167;-88
2022/09/09 18:18:25;;;;;;;12.05;5.43;;;;;;;;;;6183450;23;20216;-90
